createdAt,value
2022-11-18T00:01:04.583Z,98685.94
2022-11-18T00:06:11.982Z,98672.47
2022-11-18T00:11:41.391Z,98661.13
2022-11-18T00:16:44.800Z,98649.28
2022-11-18T00:21:48.761Z,98644.66
2022-11-18T00:26:51.888Z,98636.44
2022-11-18T00:31:56.277Z,98635.28
2022-11-18T00:36:59.090Z,98633.66
2022-11-18T00:42:20.253Z,98627.41
2022-11-18T00:47:23.201Z,98636.47
2022-11-18T00:52:25.905Z,98632.19
2022-11-18T00:57:29.012Z,98627.09
2022-11-18T01:02:31.921Z,98628.09
2022-11-18T01:07:34.735Z,98615.28
2022-11-18T01:12:56.103Z,98615.44
2022-11-18T01:17:59.037Z,98608.19
2022-11-18T01:23:02.093Z,98593.78
2022-11-18T01:28:05.367Z,98612.34
2022-11-18T01:33:09.029Z,98620.34
2022-11-18T01:38:16.081Z,98608.19
2022-11-18T01:43:23.975Z,98612.00
2022-11-18T01:48:35.010Z,98623.16
2022-11-18T01:54:07.521Z,98615.47
2022-11-18T01:59:19.089Z,98627.28
2022-11-18T02:04:23.139Z,98633.03
2022-11-18T02:09:26.044Z,98622.19
2022-11-18T02:14:35.202Z,98615.91
2022-11-18T02:19:47.462Z,98613.75
2022-11-18T02:25:36.460Z,98622.13
2022-11-18T02:30:53.751Z,98619.44
2022-11-18T02:36:17.169Z,98603.03
2022-11-18T02:41:27.204Z,98591.81
2022-11-18T02:46:37.012Z,98578.59
2022-11-18T02:51:41.976Z,98573.47
2022-11-18T02:56:46.295Z,98565.41
2022-11-18T03:01:49.316Z,98559.63
2022-11-18T03:07:11.106Z,98560.63
2022-11-18T03:12:46.730Z,98561.09
2022-11-18T03:18:16.651Z,98557.94
2022-11-18T03:23:54.216Z,98556.25
2022-11-18T03:29:03.282Z,98561.50
2022-11-18T03:34:27.487Z,98557.66
2022-11-18T03:39:34.551Z,98560.22
2022-11-18T03:44:41.873Z,98554.25
2022-11-18T03:49:56.244Z,98566.72
2022-11-18T03:55:07.182Z,98598.63
2022-11-18T04:00:14.300Z,98605.03
2022-11-18T04:05:19.518Z,98592.31
2022-11-18T04:10:40.279Z,98576.97
2022-11-18T04:15:43.368Z,98561.97
2022-11-18T04:20:46.512Z,98550.94
2022-11-18T04:25:49.778Z,98529.41
2022-11-18T04:30:52.709Z,98522.03
2022-11-18T04:35:55.970Z,98525.50
2022-11-18T04:40:58.898Z,98520.84
2022-11-18T04:46:01.775Z,98516.06
2022-11-18T04:51:06.083Z,98530.53
2022-11-18T04:56:09.162Z,98530.00
2022-11-18T05:01:12.027Z,98532.91
2022-11-18T05:06:14.962Z,98536.84
2022-11-18T05:11:36.474Z,98529.41
2022-11-18T05:16:39.458Z,98515.69
2022-11-18T05:21:42.461Z,98513.72
2022-11-18T05:26:46.174Z,98516.78
2022-11-18T05:31:49.693Z,98506.09
2022-11-18T05:36:52.591Z,98518.91
2022-11-18T05:42:13.875Z,98522.34
2022-11-18T05:47:16.808Z,98537.16
2022-11-18T05:52:19.667Z,98498.28
2022-11-18T05:57:22.589Z,98503.34
2022-11-18T06:02:25.558Z,98510.06
2022-11-18T06:07:48.831Z,98509.91
2022-11-18T06:12:56.060Z,98508.53
2022-11-18T06:18:31.396Z,98501.44
2022-11-18T06:23:41.501Z,98509.00
2022-11-18T06:28:48.580Z,98526.66
2022-11-18T06:33:52.540Z,98521.00
2022-11-18T06:38:55.428Z,98513.91
2022-11-18T06:43:58.366Z,98514.56
2022-11-18T06:49:02.420Z,98513.38
2022-11-18T06:54:10.500Z,98515.00
2022-11-18T06:59:14.390Z,98507.75
2022-11-18T07:04:17.351Z,98518.94
2022-11-18T07:09:20.475Z,98527.47
2022-11-18T07:14:23.840Z,98525.50
2022-11-18T07:19:30.211Z,98526.13
2022-11-18T07:24:38.097Z,98525.09
2022-11-18T07:29:41.188Z,98515.22
2022-11-18T07:34:45.129Z,98495.75
2022-11-18T07:39:48.169Z,98485.63
2022-11-18T07:44:51.146Z,98471.41
2022-11-18T07:49:54.311Z,98469.25
2022-11-18T07:54:57.179Z,98482.91
2022-11-18T08:00:00.207Z,98468.31
2022-11-18T08:05:03.457Z,98443.59
2022-11-18T08:10:07.562Z,98448.84
2022-11-18T08:15:11.169Z,98440.75
2022-11-18T08:20:14.829Z,98462.69
2022-11-18T08:25:17.794Z,98478.13
2022-11-18T08:30:21.446Z,98463.31
2022-11-18T08:35:25.923Z,98460.66
2022-11-18T08:40:29.024Z,98457.00
2022-11-18T08:45:32.270Z,98456.84
2022-11-18T08:50:35.134Z,98459.66
2022-11-18T08:55:38.102Z,98447.66
2022-11-18T09:00:41.208Z,98450.84
2022-11-18T09:05:44.560Z,98446.03
2022-11-18T09:10:47.521Z,98444.75
2022-11-18T09:15:50.828Z,98449.03
2022-11-18T09:20:59.097Z,98441.50
2022-11-18T09:26:06.723Z,98432.91
2022-11-18T09:31:14.383Z,98424.19
2022-11-18T09:36:24.199Z,98428.84
2022-11-18T09:41:51.078Z,98426.19
2022-11-18T09:47:33.792Z,98426.00
2022-11-18T09:52:40.716Z,98431.28
2022-11-18T09:57:53.981Z,98403.28
2022-11-18T10:03:13.899Z,98394.88
2022-11-18T10:08:31.882Z,98380.06
2022-11-18T10:13:46.652Z,98378.00
2022-11-18T10:19:01.463Z,98368.63
2022-11-18T10:24:21.496Z,98361.16
2022-11-18T10:29:25.954Z,98356.91
2022-11-18T10:34:29.944Z,98362.41
2022-11-18T10:39:33.666Z,98354.06
2022-11-18T10:44:38.710Z,98358.88
2022-11-18T10:49:41.626Z,98363.34
2022-11-18T10:54:44.617Z,98365.19
2022-11-18T10:59:51.234Z,98361.09
2022-11-18T11:04:54.570Z,98368.19
2022-11-18T11:10:12.814Z,98363.28
2022-11-18T11:15:28.748Z,98364.63
2022-11-18T11:20:31.678Z,98369.03
2022-11-18T11:31:32.066Z,98357.41
2022-11-18T11:37:17.955Z,98370.59
2022-11-18T11:42:42.409Z,98370.31
2022-11-18T11:48:03.442Z,98374.34
2022-11-18T11:53:32.754Z,98372.88
2022-11-18T11:59:01.947Z,98362.78
2022-11-18T12:04:43.901Z,98348.78
2022-11-18T12:09:57.960Z,98348.13
2022-11-18T12:15:26.005Z,98350.31
2022-11-18T12:20:37.432Z,98353.59
2022-11-18T12:25:53.985Z,98357.22
2022-11-18T12:31:15.765Z,98351.16
2022-11-18T12:36:45.331Z,98323.50
2022-11-18T12:42:12.888Z,98319.97
2022-11-18T12:47:37.482Z,98330.31
2022-11-18T12:52:40.316Z,98313.34
2022-11-18T12:57:43.250Z,98320.25
2022-11-18T13:03:01.553Z,98318.88
2022-11-18T13:08:18.137Z,98323.41
2022-11-18T13:13:32.683Z,98337.03
2022-11-18T13:18:49.391Z,98344.41
2022-11-18T13:24:01.061Z,98347.66
2022-11-18T13:29:33.037Z,98357.47
2022-11-18T13:34:48.467Z,98347.72
2022-11-18T13:39:52.466Z,98351.19
2022-11-18T13:44:58.806Z,98360.09
2022-11-18T13:50:10.756Z,98362.75
2022-11-18T13:55:33.859Z,98350.75
2022-11-18T14:00:36.985Z,98348.13
2022-11-18T14:05:41.290Z,98344.84
2022-11-18T14:10:45.184Z,98348.94
2022-11-18T14:15:48.097Z,98346.09
2022-11-18T14:20:53.985Z,98347.13
2022-11-18T14:25:58.662Z,98361.13
2022-11-18T14:31:26.151Z,98358.47
2022-11-18T14:36:29.933Z,98361.94
2022-11-18T14:41:47.573Z,98367.00
2022-11-18T14:47:09.017Z,98366.84
2022-11-18T14:52:11.931Z,98355.09
2022-11-18T14:57:17.333Z,98351.44
2022-11-18T15:02:20.356Z,98346.19
2022-11-18T15:07:24.266Z,98354.09
2022-11-18T15:12:27.340Z,98355.09
2022-11-18T15:17:31.050Z,98352.66
2022-11-18T15:22:34.744Z,98341.47
2022-11-18T15:27:38.062Z,98337.63
2022-11-18T15:32:41.209Z,98345.56
2022-11-18T15:37:44.297Z,98356.09
2022-11-18T15:42:51.764Z,98355.09
2022-11-18T15:47:55.439Z,98363.00
2022-11-18T15:52:58.415Z,98371.94
2022-11-18T15:58:01.364Z,98374.56
2022-11-18T16:03:04.252Z,98375.38
2022-11-18T16:08:07.127Z,98379.50
2022-11-18T16:13:09.973Z,98381.13
2022-11-18T16:18:12.884Z,98381.13
2022-11-18T16:23:15.695Z,98373.00
2022-11-18T16:28:18.544Z,98380.13
2022-11-18T16:33:21.786Z,98385.38
2022-11-18T16:38:25.252Z,98378.28
2022-11-18T16:43:28.128Z,98375.84
2022-11-18T16:48:31.197Z,98380.31
2022-11-18T16:53:34.044Z,98387.22
2022-11-18T16:58:36.935Z,98395.94
2022-11-18T17:03:40.333Z,98397.31
2022-11-18T17:08:43.241Z,98405.03
2022-11-18T17:13:46.181Z,98400.59
2022-11-18T17:18:56.005Z,98404.06
2022-11-18T17:23:59.066Z,98408.31
2022-11-18T17:29:02.151Z,98406.31
2022-11-18T17:34:05.543Z,98412.41
2022-11-18T17:39:11.584Z,98418.50
2022-11-18T17:44:17.788Z,98423.59
2022-11-18T17:49:23.351Z,98434.78
2022-11-18T17:54:29.233Z,98434.59
2022-11-18T17:59:32.726Z,98431.13
2022-11-18T18:04:35.699Z,98442.16
2022-11-18T18:09:38.667Z,98445.41
2022-11-18T18:14:43.518Z,98444.78
2022-11-18T18:19:46.635Z,98450.88
2022-11-18T18:24:49.527Z,98453.94
2022-11-18T18:29:52.650Z,98456.44
2022-11-18T18:34:55.612Z,98463.34
2022-11-18T18:39:59.032Z,98475.06
2022-11-18T18:45:20.177Z,98472.25
2022-11-18T18:50:29.340Z,98485.25
2022-11-18T18:55:32.660Z,98490.72
2022-11-18T19:00:35.698Z,98493.38
2022-11-18T19:06:12.631Z,98500.63
2022-11-18T19:11:06.205Z,98511.72
2022-11-18T19:16:09.424Z,98515.56
2022-11-18T19:21:12.250Z,98524.81
2022-11-18T19:26:16.026Z,98528.84
2022-11-18T19:31:20.277Z,98544.22
2022-11-18T19:36:23.159Z,98542.91
2022-11-18T19:41:26.135Z,98558.13
2022-11-18T19:46:31.726Z,98561.28
2022-11-18T19:51:36.585Z,98560.66
2022-11-18T19:56:39.558Z,98574.84
2022-11-18T20:01:43.595Z,98592.03
2022-11-18T20:06:46.688Z,98598.00
2022-11-18T20:11:49.552Z,98615.16
2022-11-18T20:16:52.550Z,98620.50
2022-11-18T20:21:55.479Z,98626.47
2022-11-18T20:26:58.428Z,98643.97
2022-11-18T20:32:01.448Z,98652.41
2022-11-18T20:37:04.492Z,98672.25
2022-11-18T20:42:26.431Z,98668.47
2022-11-18T20:47:29.434Z,98670.50
2022-11-18T20:52:34.879Z,98676.13
2022-11-18T20:57:37.855Z,98690.16
2022-11-18T21:02:40.690Z,98697.25
2022-11-18T21:07:43.688Z,98714.28
2022-11-18T21:13:05.641Z,98737.22
2022-11-18T21:18:08.817Z,98744.16
2022-11-18T21:23:12.171Z,98748.22
2022-11-18T21:28:15.011Z,98762.34
2022-11-18T21:33:17.874Z,98773.97
2022-11-18T21:38:20.726Z,98783.59
2022-11-18T21:43:50.274Z,98779.00
2022-11-18T21:48:47.218Z,98793.63
2022-11-18T21:53:50.102Z,98796.88
2022-11-18T21:58:53.095Z,98803.72
2022-11-18T22:03:59.292Z,98815.84
2022-11-18T22:09:04.132Z,98815.47
2022-11-18T22:14:08.069Z,98820.38
2022-11-18T22:19:10.943Z,98823.78
2022-11-18T22:24:13.863Z,98839.50
2022-11-18T22:29:16.942Z,98837.94
2022-11-18T22:34:20.159Z,98846.06
2022-11-18T22:39:23.111Z,98841.56
2022-11-18T22:44:26.822Z,98868.25
2022-11-18T22:49:29.565Z,98870.50
2022-11-18T22:54:40.497Z,98868.50
2022-11-18T22:59:43.483Z,98872.69
2022-11-18T23:04:46.365Z,98890.53
2022-11-18T23:09:49.337Z,98889.19
2022-11-18T23:14:52.241Z,98889.63
2022-11-18T23:19:55.188Z,98888.59
2022-11-18T23:24:58.143Z,98901.59
2022-11-18T23:30:01.042Z,98909.94
2022-11-18T23:35:05.621Z,98908.84
2022-11-18T23:40:09.432Z,98913.56
2022-11-18T23:45:12.302Z,98926.94
2022-11-18T23:50:15.431Z,98923.66
2022-11-18T23:55:18.093Z,98919.56
